createdAt,value
2019-04-30T00:01:20.556Z,9.00
2019-04-30T00:04:07.026Z,9.00
2019-04-30T00:06:39.538Z,8.90
2019-04-30T00:09:17.086Z,8.90
2019-04-30T00:11:42.785Z,8.90
2019-04-30T00:14:15.142Z,8.90
2019-04-30T00:16:45.190Z,8.90
2019-04-30T00:19:19.473Z,8.90
2019-04-30T00:21:48.285Z,8.90
2019-04-30T00:24:19.370Z,8.90
2019-04-30T00:26:52.384Z,8.90
2019-04-30T00:29:26.664Z,8.90
2019-04-30T00:31:57.655Z,8.90
2019-04-30T00:34:25.850Z,8.90
2019-04-30T00:36:56.149Z,8.90
2019-04-30T00:39:27.258Z,8.90
2019-04-30T00:41:57.854Z,8.90
2019-04-30T00:44:28.534Z,8.90
2019-04-30T00:47:00.690Z,8.90
2019-04-30T00:49:30.901Z,8.90
2019-04-30T00:52:01.211Z,8.90
2019-04-30T00:54:35.078Z,8.90
2019-04-30T00:57:07.251Z,8.90
2019-04-30T00:59:35.370Z,8.90
2019-04-30T01:02:35.772Z,8.90
2019-04-30T01:05:11.069Z,8.90
2019-04-30T01:07:48.827Z,9.00
2019-04-30T01:10:15.207Z,9.00
2019-04-30T01:12:49.605Z,8.90
2019-04-30T01:15:19.080Z,9.00
2019-04-30T01:17:51.090Z,9.00
2019-04-30T01:20:24.157Z,9.00
2019-04-30T01:22:54.145Z,9.00
2019-04-30T01:25:24.810Z,9.00
2019-04-30T01:27:55.454Z,9.00
2019-04-30T01:30:25.767Z,9.00
2019-04-30T01:32:57.141Z,9.00
2019-04-30T01:35:32.462Z,9.00
2019-04-30T01:38:04.089Z,9.00
2019-04-30T01:40:32.245Z,9.00
2019-04-30T01:43:02.553Z,9.00
2019-04-30T01:45:32.873Z,9.00
2019-04-30T01:48:08.840Z,9.00
2019-04-30T01:50:38.707Z,9.00
2019-04-30T01:53:11.445Z,9.00
2019-04-30T01:55:59.202Z,9.00
2019-04-30T01:58:49.484Z,9.00
2019-04-30T02:01:22.333Z,9.00
2019-04-30T02:03:52.633Z,9.00
2019-04-30T02:06:22.981Z,8.90
2019-04-30T02:08:53.269Z,8.90
2019-04-30T02:11:23.681Z,8.80
2019-04-30T02:13:54.017Z,8.80
2019-04-30T02:16:24.354Z,8.80
2019-04-30T02:18:54.659Z,8.80
2019-04-30T02:21:25.017Z,8.80
2019-04-30T02:23:55.361Z,8.70
2019-04-30T02:26:25.688Z,8.80
2019-04-30T02:28:56.013Z,8.80
2019-04-30T02:31:26.449Z,8.80
2019-04-30T02:34:04.289Z,8.80
2019-04-30T02:36:41.786Z,8.70
2019-04-30T02:39:12.098Z,8.80
2019-04-30T02:41:43.830Z,8.80
2019-04-30T02:44:14.664Z,8.80
2019-04-30T02:46:46.066Z,8.80
2019-04-30T02:49:20.073Z,8.80
2019-04-30T02:51:50.952Z,8.80
2019-04-30T02:54:29.949Z,8.80
2019-04-30T02:57:06.792Z,8.80
2019-04-30T02:59:40.372Z,8.80
2019-04-30T03:02:11.688Z,8.70
2019-04-30T03:04:42.250Z,8.70
2019-04-30T03:07:12.567Z,8.60
2019-04-30T03:09:42.903Z,8.60
2019-04-30T03:12:13.216Z,8.60
2019-04-30T03:14:43.538Z,8.60
2019-04-30T03:17:23.425Z,8.50
2019-04-30T03:20:03.083Z,8.50
2019-04-30T03:22:30.797Z,8.40
2019-04-30T03:25:01.126Z,8.40
2019-04-30T03:27:32.542Z,8.40
2019-04-30T03:30:02.927Z,8.30
2019-04-30T03:32:36.824Z,8.30
2019-04-30T03:35:05.634Z,8.30
2019-04-30T03:37:35.963Z,8.30
2019-04-30T03:40:06.846Z,8.20
2019-04-30T03:42:39.521Z,8.10
2019-04-30T03:45:10.097Z,8.10
2019-04-30T03:47:43.290Z,8.10
2019-04-30T03:50:12.743Z,8.00
2019-04-30T03:52:43.053Z,8.00
2019-04-30T03:55:13.503Z,7.90
2019-04-30T03:57:43.899Z,7.90
2019-04-30T04:00:17.172Z,7.80
2019-04-30T04:02:50.206Z,7.70
2019-04-30T04:05:43.595Z,7.70
2019-04-30T04:08:36.062Z,7.70
2019-04-30T04:11:19.954Z,7.60
2019-04-30T04:13:50.399Z,7.60
2019-04-30T04:16:20.767Z,7.60
2019-04-30T04:18:51.146Z,7.50
2019-04-30T04:21:21.527Z,7.50
2019-04-30T04:23:51.924Z,7.50
2019-04-30T04:26:22.297Z,7.40
2019-04-30T04:28:52.745Z,7.40
2019-04-30T04:31:23.083Z,7.40
2019-04-30T04:33:53.390Z,7.40
2019-04-30T04:36:23.737Z,7.30
2019-04-30T04:38:54.058Z,7.30
2019-04-30T04:41:24.385Z,7.20
2019-04-30T04:43:54.690Z,7.30
2019-04-30T04:46:25.015Z,7.20
2019-04-30T04:48:55.317Z,7.20
2019-04-30T04:51:36.628Z,7.20
2019-04-30T04:54:00.201Z,7.20
2019-04-30T04:56:30.401Z,7.20
2019-04-30T04:59:00.945Z,7.20
2019-04-30T05:01:31.291Z,7.20
2019-04-30T05:04:01.598Z,7.20
2019-04-30T05:06:31.977Z,7.20
2019-04-30T05:09:02.381Z,7.10
2019-04-30T05:11:32.699Z,7.10
2019-04-30T05:14:03.026Z,7.20
2019-04-30T05:16:34.570Z,7.10
2019-04-30T05:19:04.969Z,7.20
2019-04-30T05:21:42.738Z,7.20
2019-04-30T05:24:08.952Z,7.20
2019-04-30T05:26:39.425Z,7.30
2019-04-30T05:29:09.886Z,7.30
2019-04-30T05:31:40.434Z,7.30
2019-04-30T05:34:10.754Z,7.30
2019-04-30T05:36:41.185Z,7.30
2019-04-30T05:39:11.494Z,7.40
2019-04-30T05:41:41.806Z,7.40
2019-04-30T05:44:12.112Z,7.40
2019-04-30T05:46:42.533Z,7.50
2019-04-30T05:49:12.917Z,7.50
2019-04-30T05:51:52.839Z,7.60
2019-04-30T05:54:15.161Z,7.60
2019-04-30T05:56:45.489Z,7.60
2019-04-30T05:59:15.934Z,7.70
2019-04-30T06:01:48.766Z,7.70
2019-04-30T06:04:19.393Z,7.70
2019-04-30T06:06:49.891Z,7.80
2019-04-30T06:09:38.542Z,7.80
2019-04-30T06:12:40.225Z,7.80
2019-04-30T06:15:34.290Z,7.90
2019-04-30T06:18:11.561Z,7.90
2019-04-30T06:20:38.538Z,7.90
2019-04-30T06:23:09.637Z,8.00
2019-04-30T06:25:55.646Z,8.10
2019-04-30T06:28:13.177Z,8.20
2019-04-30T06:30:43.508Z,8.20
2019-04-30T06:33:14.159Z,8.30
2019-04-30T06:35:45.461Z,8.40
2019-04-30T06:38:16.022Z,8.40
2019-04-30T06:40:46.366Z,8.50
2019-04-30T06:43:21.229Z,8.50
2019-04-30T06:45:54.961Z,8.60
2019-04-30T06:48:30.036Z,8.60
2019-04-30T06:51:02.267Z,8.60
2019-04-30T06:53:35.178Z,8.70
2019-04-30T06:56:09.017Z,8.70
2019-04-30T06:58:41.402Z,8.80
2019-04-30T07:01:13.277Z,8.90
2019-04-30T07:03:43.709Z,9.00
2019-04-30T07:09:08.702Z,9.10
2019-04-30T07:11:41.798Z,9.20
2019-04-30T07:14:12.117Z,9.30
2019-04-30T07:16:42.486Z,9.40
2019-04-30T07:19:13.369Z,9.50
2019-04-30T07:21:45.267Z,9.60
2019-04-30T07:24:15.985Z,9.60
2019-04-30T07:26:46.313Z,9.70
2019-04-30T07:29:16.839Z,9.70
2019-04-30T07:31:49.327Z,9.80
2019-04-30T07:34:19.640Z,9.90
2019-04-30T07:38:00.641Z,9.90
2019-04-30T07:40:30.943Z,10.00
2019-04-30T07:43:01.250Z,10.00
2019-04-30T07:48:03.544Z,10.20
2019-04-30T07:50:34.797Z,10.30
2019-04-30T07:53:06.780Z,10.40
2019-04-30T07:55:39.246Z,10.40
2019-04-30T07:58:09.335Z,10.50
2019-04-30T08:00:41.303Z,10.60
2019-04-30T08:03:35.247Z,10.60
2019-04-30T08:06:06.224Z,10.70
2019-04-30T08:08:36.699Z,10.70
2019-04-30T08:09:36.812Z,10.10
2019-04-30T08:11:06.583Z,10.70
2019-04-30T08:13:39.621Z,10.70
2019-04-30T08:16:09.780Z,10.70
2019-04-30T08:18:40.386Z,10.90
2019-04-30T08:21:10.698Z,10.90
2019-04-30T08:23:41.109Z,11.00
2019-04-30T08:26:11.486Z,11.10
2019-04-30T08:28:41.798Z,11.20
2019-04-30T08:31:12.250Z,11.30
2019-04-30T08:33:43.734Z,11.40
2019-04-30T08:36:14.030Z,11.40
2019-04-30T08:38:44.376Z,11.50
2019-04-30T08:41:15.268Z,11.60
2019-04-30T08:43:45.602Z,11.60
2019-04-30T08:46:18.941Z,11.60
2019-04-30T08:48:51.614Z,11.80
2019-04-30T08:51:21.033Z,11.90
2019-04-30T08:53:51.446Z,11.90
2019-04-30T08:56:22.061Z,12.10
2019-04-30T08:58:54.813Z,12.20
2019-04-30T09:01:24.433Z,12.20
2019-04-30T09:03:54.893Z,12.20
2019-04-30T09:06:29.085Z,12.30
2019-04-30T09:09:24.144Z,12.30
2019-04-30T09:11:55.938Z,12.40
2019-04-30T09:14:26.799Z,12.60
2019-04-30T09:16:57.071Z,12.70
2019-04-30T09:19:27.381Z,12.80
2019-04-30T09:21:59.023Z,12.90
2019-04-30T09:24:31.522Z,12.90
2019-04-30T09:27:02.004Z,12.90
2019-04-30T09:29:33.806Z,12.90
2019-04-30T09:32:04.225Z,13.00
2019-04-30T09:34:34.669Z,13.10
2019-04-30T09:37:05.065Z,13.20
2019-04-30T09:39:35.477Z,13.40
2019-04-30T09:42:09.142Z,13.40
2019-04-30T09:44:39.438Z,13.50
2019-04-30T09:47:09.922Z,13.70
2019-04-30T09:49:42.896Z,13.90
2019-04-30T09:52:13.783Z,14.10
2019-04-30T09:54:46.206Z,14.20
2019-04-30T09:57:19.144Z,14.40
2019-04-30T09:59:48.771Z,14.30
2019-04-30T10:02:19.379Z,14.30
2019-04-30T10:04:50.051Z,14.30
2019-04-30T10:07:20.657Z,14.10
2019-04-30T10:09:51.094Z,14.00
2019-04-30T10:12:21.378Z,14.10
2019-04-30T10:14:51.733Z,14.00
2019-04-30T10:17:34.266Z,14.20
2019-04-30T10:20:06.705Z,14.20
2019-04-30T10:22:39.940Z,14.20
2019-04-30T10:25:11.239Z,14.30
2019-04-30T10:27:41.582Z,14.50
2019-04-30T10:30:13.451Z,14.60
2019-04-30T10:32:43.730Z,14.60
2019-04-30T10:35:13.691Z,14.70
2019-04-30T10:37:44.109Z,14.80
2019-04-30T10:40:14.654Z,14.80
2019-04-30T10:42:45.057Z,14.60
2019-04-30T10:45:15.358Z,14.50
2019-04-30T10:47:45.842Z,14.50
2019-04-30T10:50:16.476Z,14.50
2019-04-30T10:52:46.915Z,14.50
2019-04-30T10:55:17.808Z,14.40
2019-04-30T10:57:49.544Z,14.40
2019-04-30T11:00:24.037Z,14.50
2019-04-30T11:02:55.574Z,14.80
2019-04-30T11:05:26.029Z,15.00
2019-04-30T11:07:56.414Z,15.10
2019-04-30T11:10:28.654Z,15.40
2019-04-30T11:12:59.093Z,15.50
2019-04-30T11:15:29.421Z,15.40
2019-04-30T11:18:00.155Z,15.50
2019-04-30T11:20:30.749Z,15.80
2019-04-30T11:23:13.272Z,15.80
2019-04-30T11:25:34.138Z,15.80
2019-04-30T11:28:05.665Z,15.70
2019-04-30T11:30:39.012Z,15.80
2019-04-30T11:33:09.261Z,16.00
2019-04-30T11:35:39.686Z,16.10
2019-04-30T11:38:10.066Z,16.00
2019-04-30T11:40:40.706Z,16.10
2019-04-30T11:43:10.745Z,16.20
2019-04-30T11:46:22.933Z,16.00
2019-04-30T11:48:53.406Z,16.30
2019-04-30T11:51:27.016Z,16.40
2019-04-30T11:53:59.211Z,16.40
2019-04-30T11:56:29.050Z,16.10
2019-04-30T11:58:59.375Z,16.00
2019-04-30T12:01:31.369Z,16.10
2019-04-30T12:04:01.785Z,16.30
2019-04-30T12:06:32.169Z,16.50
2019-04-30T12:09:22.918Z,16.40
2019-04-30T12:11:53.253Z,16.50
2019-04-30T12:14:23.731Z,16.90
2019-04-30T12:16:54.101Z,17.10
2019-04-30T12:19:24.409Z,17.50
2019-04-30T12:21:54.738Z,17.70
2019-04-30T12:24:25.046Z,17.70
2019-04-30T12:26:55.370Z,17.60
2019-04-30T12:29:25.750Z,17.70
2019-04-30T12:31:56.269Z,17.90
2019-04-30T12:34:29.494Z,17.70
2019-04-30T12:37:00.003Z,17.60
2019-04-30T12:39:30.309Z,17.70
2019-04-30T12:42:02.135Z,17.70
2019-04-30T12:44:33.285Z,17.80
2019-04-30T12:47:03.684Z,17.50
2019-04-30T12:50:09.558Z,17.30
2019-04-30T12:53:01.934Z,17.50
2019-04-30T12:55:51.295Z,17.90
2019-04-30T12:58:21.746Z,18.00
2019-04-30T13:00:52.262Z,17.80
2019-04-30T13:03:22.592Z,17.50
2019-04-30T13:05:53.482Z,17.60
2019-04-30T13:08:24.475Z,17.50
2019-04-30T13:10:55.636Z,17.70
2019-04-30T13:13:26.421Z,17.80
2019-04-30T13:15:59.842Z,18.00
2019-04-30T13:18:29.625Z,18.00
2019-04-30T13:21:00.143Z,17.90
2019-04-30T13:23:30.524Z,18.00
2019-04-30T13:26:01.069Z,18.00
2019-04-30T13:28:36.158Z,18.00
2019-04-30T13:31:06.146Z,17.90
2019-04-30T13:33:42.226Z,18.00
2019-04-30T13:36:12.848Z,18.30
2019-04-30T13:38:52.356Z,18.20
2019-04-30T13:41:46.224Z,18.30
2019-04-30T13:44:20.809Z,18.50
2019-04-30T13:46:51.246Z,18.50
2019-04-30T13:49:21.670Z,18.80
2019-04-30T13:51:53.154Z,19.00
2019-04-30T13:54:23.443Z,18.90
2019-04-30T13:56:53.757Z,18.80
2019-04-30T13:59:24.122Z,18.70
2019-04-30T14:01:54.465Z,18.70
2019-04-30T14:04:42.850Z,18.80
2019-04-30T14:07:44.781Z,19.00
2019-04-30T14:10:15.309Z,18.90
2019-04-30T14:12:51.882Z,19.10
2019-04-30T14:15:22.321Z,19.20
2019-04-30T14:17:52.778Z,19.10
2019-04-30T14:20:23.147Z,19.00
2019-04-30T14:22:53.482Z,18.80
2019-04-30T14:25:23.854Z,19.00
2019-04-30T14:27:54.828Z,19.00
2019-04-30T14:30:25.784Z,18.90
2019-04-30T14:32:56.089Z,18.70
2019-04-30T14:35:26.446Z,18.80
2019-04-30T14:37:56.786Z,18.90
2019-04-30T14:40:29.801Z,19.20
2019-04-30T14:43:09.834Z,18.70
2019-04-30T14:45:52.989Z,18.90
2019-04-30T14:48:31.098Z,19.00
2019-04-30T14:51:01.333Z,19.40
2019-04-30T14:53:58.784Z,19.60
2019-04-30T14:56:39.306Z,19.40
2019-04-30T14:59:40.564Z,19.40
2019-04-30T15:02:36.117Z,19.40
2019-04-30T15:05:09.007Z,19.50
2019-04-30T15:07:42.142Z,19.70
2019-04-30T15:10:12.679Z,19.80
2019-04-30T15:12:42.993Z,19.40
2019-04-30T15:15:14.295Z,19.40
2019-04-30T15:17:44.709Z,19.60
2019-04-30T15:20:15.594Z,19.90
2019-04-30T15:22:55.601Z,20.00
2019-04-30T15:25:34.156Z,20.20
2019-04-30T15:28:01.740Z,20.50
2019-04-30T15:30:32.150Z,20.70
2019-04-30T15:33:11.237Z,20.70
2019-04-30T15:35:41.869Z,20.60
2019-04-30T15:38:12.286Z,20.60
2019-04-30T15:40:42.613Z,20.20
2019-04-30T15:43:13.098Z,20.10
2019-04-30T15:45:43.477Z,19.80
2019-04-30T15:48:13.793Z,19.70
2019-04-30T15:50:44.106Z,19.70
2019-04-30T15:53:14.422Z,19.90
2019-04-30T15:55:44.745Z,20.10
2019-04-30T15:58:23.093Z,20.10
2019-04-30T16:00:53.587Z,20.20
2019-04-30T16:03:27.134Z,20.50
2019-04-30T16:05:57.519Z,20.70
2019-04-30T16:08:32.205Z,20.70
2019-04-30T16:11:10.477Z,20.60
2019-04-30T16:13:58.628Z,20.60
2019-04-30T16:16:32.949Z,20.60
2019-04-30T16:19:03.585Z,20.40
2019-04-30T16:21:34.036Z,20.20
2019-04-30T16:24:04.724Z,19.60
2019-04-30T16:26:46.372Z,19.80
2019-04-30T16:29:09.823Z,19.80
2019-04-30T16:31:40.171Z,19.90
2019-04-30T16:34:13.537Z,19.70
2019-04-30T16:36:43.962Z,19.60
2019-04-30T16:39:14.417Z,19.60
2019-04-30T16:41:44.869Z,19.50
2019-04-30T16:44:15.291Z,19.70
2019-04-30T16:46:45.661Z,19.80
2019-04-30T16:49:16.336Z,19.80
2019-04-30T16:51:46.825Z,19.80
2019-04-30T16:54:20.358Z,19.70
2019-04-30T16:57:03.446Z,19.90
2019-04-30T16:59:33.438Z,20.00
2019-04-30T17:02:09.212Z,20.10
2019-04-30T17:04:52.298Z,20.00
2019-04-30T17:07:34.379Z,19.70
2019-04-30T17:10:27.088Z,19.50
2019-04-30T17:13:09.312Z,19.50
2019-04-30T17:15:40.505Z,19.70
2019-04-30T17:18:12.206Z,19.90
2019-04-30T17:20:42.934Z,20.00
2019-04-30T17:23:13.275Z,19.90
2019-04-30T17:25:44.049Z,19.90
2019-04-30T17:28:18.815Z,19.80
2019-04-30T17:30:49.437Z,19.50
2019-04-30T17:33:19.870Z,19.00
2019-04-30T17:35:50.293Z,18.90
2019-04-30T17:38:20.629Z,18.90
2019-04-30T17:40:50.978Z,18.90
2019-04-30T17:43:24.251Z,18.80
2019-04-30T17:45:53.651Z,18.80
2019-04-30T17:48:23.963Z,18.60
2019-04-30T17:50:54.426Z,18.50
2019-04-30T17:53:24.730Z,18.30
2019-04-30T17:55:55.089Z,18.00
2019-04-30T17:58:25.414Z,17.70
2019-04-30T18:00:57.583Z,17.50
2019-04-30T18:03:29.348Z,17.40
2019-04-30T18:05:59.721Z,17.30
2019-04-30T18:08:30.078Z,17.20
2019-04-30T18:11:00.646Z,17.10
2019-04-30T18:13:30.966Z,17.10
2019-04-30T18:16:01.386Z,17.00
2019-04-30T18:18:37.871Z,16.90
2019-04-30T18:21:21.058Z,16.80
2019-04-30T18:24:09.213Z,16.80
2019-04-30T18:26:46.698Z,16.70
2019-04-30T18:29:17.013Z,16.50
2019-04-30T18:31:48.975Z,16.50
2019-04-30T18:34:19.511Z,16.50
2019-04-30T18:36:51.245Z,16.40
2019-04-30T18:39:21.824Z,16.20
2019-04-30T18:41:52.141Z,16.20
2019-04-30T18:44:22.468Z,16.10
2019-04-30T18:46:52.802Z,16.00
2019-04-30T18:49:23.110Z,15.90
2019-04-30T18:51:53.470Z,15.80
2019-04-30T18:54:28.986Z,15.70
2019-04-30T18:56:59.389Z,15.60
2019-04-30T18:59:32.536Z,15.50
2019-04-30T19:02:01.946Z,15.50
2019-04-30T19:04:32.306Z,15.30
2019-04-30T19:07:12.365Z,15.20
2019-04-30T19:09:49.076Z,15.10
2019-04-30T19:12:58.973Z,15.10
2019-04-30T19:16:13.640Z,15.00
2019-04-30T19:18:47.110Z,15.00
2019-04-30T19:21:17.647Z,14.90
2019-04-30T19:23:48.961Z,14.80
2019-04-30T19:26:20.936Z,14.80
2019-04-30T19:28:52.138Z,14.70
2019-04-30T19:31:23.089Z,14.60
2019-04-30T19:33:56.011Z,14.50
2019-04-30T19:36:37.409Z,14.40
2019-04-30T19:39:01.478Z,14.30
2019-04-30T19:41:32.015Z,14.30
2019-04-30T19:44:02.397Z,14.30
2019-04-30T19:46:32.733Z,14.20
2019-04-30T19:49:04.036Z,14.20
2019-04-30T19:51:34.449Z,14.10
2019-04-30T19:54:04.983Z,14.00
2019-04-30T19:56:40.078Z,13.90
2019-04-30T19:59:10.665Z,13.90
2019-04-30T20:01:43.343Z,14.00
2019-04-30T20:04:15.224Z,14.00
2019-04-30T20:06:50.508Z,14.00
2019-04-30T20:09:21.925Z,14.00
2019-04-30T20:11:52.381Z,14.00
2019-04-30T20:14:26.430Z,13.80
2019-04-30T20:16:59.100Z,13.80
2019-04-30T20:19:31.181Z,13.80
2019-04-30T20:22:04.665Z,13.80
2019-04-30T20:24:39.318Z,13.80
2019-04-30T20:27:10.780Z,13.70
2019-04-30T20:29:44.623Z,13.60
2019-04-30T20:32:15.460Z,13.60
2019-04-30T20:34:54.380Z,13.60
2019-04-30T20:37:29.358Z,13.50
2019-04-30T20:40:10.784Z,13.40
2019-04-30T20:42:41.778Z,13.40
2019-04-30T20:45:12.313Z,13.30
2019-04-30T20:47:42.763Z,13.30
2019-04-30T20:50:13.690Z,13.20
2019-04-30T20:52:52.317Z,13.20
2019-04-30T20:55:26.137Z,13.10
2019-04-30T20:57:56.478Z,13.10
2019-04-30T21:00:26.909Z,13.00
2019-04-30T21:02:57.257Z,12.90
2019-04-30T21:05:27.683Z,12.80
2019-04-30T21:07:58.221Z,12.70
2019-04-30T21:10:29.733Z,12.70
2019-04-30T21:13:00.258Z,12.60
2019-04-30T21:15:30.629Z,12.60
2019-04-30T21:18:01.011Z,12.50
2019-04-30T21:20:31.456Z,12.50
2019-04-30T21:23:01.810Z,12.50
2019-04-30T21:25:32.121Z,12.40
2019-04-30T21:28:02.498Z,12.40
2019-04-30T21:30:32.957Z,12.30
2019-04-30T21:33:28.486Z,12.30
2019-04-30T21:36:20.177Z,12.30
2019-04-30T21:38:50.505Z,12.20
2019-04-30T21:41:20.890Z,12.20
2019-04-30T21:43:51.373Z,12.20
2019-04-30T21:46:21.730Z,12.20
2019-04-30T21:48:52.665Z,12.20
2019-04-30T21:51:22.970Z,12.20
2019-04-30T21:53:53.369Z,12.10
2019-04-30T21:56:24.026Z,12.10
2019-04-30T21:58:55.746Z,12.00
2019-04-30T22:01:26.624Z,12.00
2019-04-30T22:03:57.513Z,12.00
2019-04-30T22:06:29.707Z,12.00
2019-04-30T22:09:01.074Z,12.00
2019-04-30T22:11:31.914Z,12.00
2019-04-30T22:14:02.289Z,12.00
2019-04-30T22:16:32.733Z,12.10
2019-04-30T22:19:03.073Z,12.00
2019-04-30T22:21:33.621Z,12.00
2019-04-30T22:24:03.997Z,12.00
2019-04-30T22:26:34.474Z,11.90
2019-04-30T22:29:05.108Z,11.90
2019-04-30T22:31:35.740Z,11.80
2019-04-30T22:34:08.783Z,11.80
2019-04-30T22:36:48.845Z,11.80
2019-04-30T22:39:33.381Z,11.80
2019-04-30T22:42:39.795Z,11.80
2019-04-30T22:45:21.392Z,11.70
2019-04-30T22:47:53.195Z,11.70
2019-04-30T22:50:25.161Z,11.60
2019-04-30T22:52:55.654Z,11.60
2019-04-30T22:55:25.993Z,11.60
2019-04-30T22:57:56.302Z,11.60
2019-04-30T23:00:39.528Z,11.60
2019-04-30T23:03:12.938Z,11.60
2019-04-30T23:05:43.261Z,11.60
2019-04-30T23:08:13.569Z,11.50
2019-04-30T23:10:43.901Z,11.50
2019-04-30T23:13:14.517Z,11.50
2019-04-30T23:15:44.906Z,11.40
2019-04-30T23:18:15.343Z,11.50
2019-04-30T23:20:45.693Z,11.50
2019-04-30T23:23:16.042Z,11.40
2019-04-30T23:25:46.345Z,11.40
2019-04-30T23:28:16.878Z,11.40
2019-04-30T23:30:47.269Z,11.40
2019-04-30T23:33:17.597Z,11.30
2019-04-30T23:35:47.918Z,11.30
2019-04-30T23:38:18.253Z,11.30
2019-04-30T23:40:51.182Z,11.30
2019-04-30T23:43:21.604Z,11.30
2019-04-30T23:45:51.917Z,11.30
2019-04-30T23:48:22.491Z,11.20
2019-04-30T23:50:52.925Z,11.20
2019-04-30T23:53:23.240Z,11.20
2019-04-30T23:55:53.856Z,11.20
2019-04-30T23:58:24.201Z,11.20
